Banner



Журнал Авиация и Спорт

 

 

Страница пилота

Данные METAR получены с http://aviationweather.gov/adds/metars/
Текст METAR: UUDD 180330Z 27002MPS 240V300 CAVOK 11/05 Q1020 R88/70D NOSIG
Условия на: UUDD (MOSCOW/DOMODEDOV, RU) observed 0330 UTC 18 May 2019
Температура: 11.0°C (52°F)
Точка росы: 5.0°C (41°F) [RH = 66%]
Давление (альтиметр): 30.12 inches Hg (1020.0 mb)
Ветер: from the W (270 degrees) at 5 MPH (4 knots; 2.1 m/s)
Видимость: 6 or more miles (10+ km)
Высота облачности: ceiling and visibility are OK
Облачность: unknown
Погода: no significant weather observed at this time
Прогноз на: UUDD (MOSCOW/DOMODEDOV, RU)
Текст: TAF UUDD 180153Z 1803/1909 32003MPS CAVOK TX21/1813Z TN07/1901Z
Период прогноза: 0300 UTC 18 May 2019 to 0900 UTC 19 May 2019
Тип прогноза: FROM: standard forecast or significant change
Ветер: from the NW (320 degrees) at 7 MPH (6 knots; 3.1 m/s)
Видимость: 6 or more miles 10+ km)
Высота облачности: unknown
Облачность: missing
Погода: no significant weather forecast for this period
Текст: TEMPO 1807/1815 34008MPS
Период прогноза: 0700 to 1500 UTC 18 May 2019
Тип прогноза: TEMPORARY: The following changes expected for less than half the time period
Ветер: from the NNW (340 degrees) at 18 MPH (16 knots; 8.2 m/s)
Видимость: missing
Высота облачности: unknown
Облачность: missing
Погода: no significant weather forecast for this period
Текст METAR: UUWW 180330Z 32002MPS CAVOK 12/04 Q1021 R24/000070 NOSIG
Условия на: UUWW (MOSCOW/VNUKOVO , RU) observed 0330 UTC 18 May 2019
Температура: 12.0°C (54°F)
Точка росы: 4.0°C (39°F) [RH = 58%]
Давление (альтиметр): 30.15 inches Hg (1021.0 mb)
Ветер: from the NW (320 degrees) at 5 MPH (4 knots; 2.1 m/s)
Видимость: 6 or more miles (10+ km)
Высота облачности: ceiling and visibility are OK
Облачность: unknown
Погода: no significant weather observed at this time
Прогноз на: UUWW (MOSCOW/VNUKOVO , RU)
Текст: TAF UUWW 180158Z 1803/1903 28003MPS CAVOK TX21/1812Z TN07/1803Z
Период прогноза: 0300 to 0600 UTC 18 May 2019
Тип прогноза: FROM: standard forecast or significant change
Ветер: from the W (280 degrees) at 7 MPH (6 knots; 3.1 m/s)
Видимость: 6 or more miles 10+ km)
Высота облачности: unknown
Облачность: missing
Погода: no significant weather forecast for this period
Текст: BECMG 1806/1808 34006MPS
Период прогноза: 0600 UTC 18 May 2019 to 0300 UTC 19 May 2019
Тип прогноза: BECOMING: Conditions expected to become as follows by 0800 UTC 18 May 2019
Ветер: from the NNW (340 degrees) at 14 MPH (12 knots; 6.2 m/s)
Видимость: 6 or more miles 10+ km)
Высота облачности: unknown
Облачность: missing
Погода: no significant weather forecast for this period
Текст METAR: UUEE 180330Z 34003MPS CAVOK 12/04 Q1020 R24L/CLRD62 R24C/CLRD62 NOSIG
Условия на: UUEE (MOSCOW/SHEREMET', RU) observed 0330 UTC 18 May 2019
Температура: 12.0°C (54°F)
Точка росы: 4.0°C (39°F) [RH = 58%]
Давление (альтиметр): 30.12 inches Hg (1020.0 mb)
Ветер: from the NNW (340 degrees) at 7 MPH (6 knots; 3.1 m/s)
Видимость: 6 or more miles (10+ km)
Высота облачности: ceiling and visibility are OK
Облачность: unknown
Погода: no significant weather observed at this time
Прогноз на: UUEE (MOSCOW/SHEREMET', RU)
Текст: TAF UUEE 180151Z 1803/1903 28003MPS CAVOK TX21/1812Z TN08/1803Z
Период прогноза: 0300 to 0600 UTC 18 May 2019
Тип прогноза: FROM: standard forecast or significant change
Ветер: from the W (280 degrees) at 7 MPH (6 knots; 3.1 m/s)
Видимость: 6 or more miles 10+ km)
Высота облачности: unknown
Облачность: missing
Погода: no significant weather forecast for this period
Текст: BECMG 1806/1808 34006MPS
Период прогноза: 0600 UTC 18 May 2019 to 0300 UTC 19 May 2019
Тип прогноза: BECOMING: Conditions expected to become as follows by 0800 UTC 18 May 2019
Ветер: from the NNW (340 degrees) at 14 MPH (12 knots; 6.2 m/s)
Видимость: 6 or more miles 10+ km)
Высота облачности: unknown
Облачность: missing
Погода: no significant weather forecast for this period

вернуться на главную